Westerdam — PINX — position and weather

sailwx.info

Track history (hours):
 
Tides and Currents Weather Stations Pressure Air Temp Water Temp Dewpoint Dewpoint Depression Visibility Wind Speed Wind Dir Waves Ship Positions

Westerdam

Operator: Holland America Line

Last reported at 2018-Jun-24 20:00 UTC. Time now 2018-Jun-24 20:17 UTC.
Position N 49°17' W 123°07'.

Type: Passenger vessel. MMSI: 244128000.

Date/timePositionNaut miles runAvg speedWind from/ knotsBaromVisibWave heightAir tempDewpointWater temp
2018-Jun-24 20:00N 49°17' W 123°07'0 0.0
2018-Jun-24 19:28N 49°17' W 123°07'0 0.0
2018-Jun-24 18:55N 49°17' W 123°07'0 0.0
2018-Jun-24 18:31N 49°17' W 123°07'0 0.0
2018-Jun-24 18:01N 49°17' W 123°07'0 0.0
2018-Jun-24 17:31N 49°17' W 123°07'0 0.0
2018-Jun-24 17:00N 49°17' W 123°07'0 0.0
2018-Jun-24 16:27N 49°17' W 123°07'0 0.0
2018-Jun-24 16:01N 49°17' W 123°07'0 0.0
2018-Jun-24 15:30N 49°17' W 123°07'0 0.0
2018-Jun-24 14:57N 49°17' W 123°07'0 0.0
2018-Jun-24 14:28N 49°17' W 123°07'0 0.0
2018-Jun-24 14:00N 49°17' W 123°07'0 0.4
2018-Jun-24 13:30N 49°17' W 123°07'3 6.3
2018-Jun-24 12:59N 49°19' W 123°11'5 9.7
2018-Jun-24 12:30N 49°18' W 123°18'610.2
2018-Jun-24 11:57N 49°18' W 123°27'711.4
2018-Jun-24 11:22N 49°19' W 123°37'711.9
2018-Jun-24 10:49N 49°20' W 123°47'412.8
2018-Jun-24 10:29N 49°22' W 123°53'712.4
2018-Jun-24 09:56N 49°23' W 124°03'512.3
2018-Jun-24 09:30N 49°24' W 124°11'612.1
2018-Jun-24 09:00N 49°25' W 124°20'611.6
2018-Jun-24 08:30N 49°28' W 124°28'612.3
2018-Jun-24 08:00N 49°33' W 124°35'612.5
2018-Jun-24 07:30N 49°37' W 124°41'714.1
2018-Jun-24 07:00N 49°42' W 124°49'714.7
2018-Jun-24 06:30N 49°48' W 124°56'714.0
2018-Jun-24 06:00N 49°53' W 125°04'714.1
2018-Jun-24 05:30N 49°58' W 125°11'713.8
2018-Jun-24 04:59N 50°05' W 125°16'611.9
2018-Jun-24 04:31N 50°09' W 125°21'612.8
2018-Jun-24 04:00N 50°16' W 125°24'4223.3
2018-Jun-24 04:00N 50°12' W 125°24'1515.0 150 / 171018.410.8 19.2 9.115.0
2018-Jun-24 02:59N 50°22' W 125°41'2117.3
2018-Jun-24 01:47N 50°29' W 126°12'818.7
2018-Jun-24 01:22N 50°30' W 126°24'1018.2
2018-Jun-24 00:47N 50°32' W 126°40'716.6
2018-Jun-24 00:23N 50°37' W 126°46'2 4.6
2018-Jun-24 00:00N 50°36' W 126°48'8250.3 260 / 191021.710.8 13.611.112.0
2018-Jun-23 23:57N 50°42' W 126°57'919.2
2018-Jun-23 23:30N 50°46' W 127°10'919.0
2018-Jun-23 23:00N 50°49' W 127°24'918.7
2018-Jun-23 22:30N 50°53' W 127°37'918.8
2018-Jun-23 22:00N 50°59' W 127°49'918.8
2018-Jun-23 21:30N 51°03' W 128°02'918.4
2018-Jun-23 21:00N 51°07' W 128°15'918.8
2018-Jun-23 20:30N 51°11' W 128°29'1019.2
2018-Jun-23 20:00N 51°15' W 128°43'1019.4
2018-Jun-23 19:29N 51°19' W 128°58'919.3
2018-Jun-23 19:00N 51°23' W 129°11'1319.8
2018-Jun-23 18:22N 51°29' W 129°29'11919.1
2018-Jun-23 12:08N 53°19' W 130°42'319.8
2018-Jun-23 12:00N 53°22' W 130°44'1119.5
2018-Jun-23 11:27N 53°32' W 130°49'819.2
2018-Jun-23 11:00N 53°40' W 130°53'1019.7
2018-Jun-23 10:30N 53°50' W 130°58'1019.6
2018-Jun-23 10:00N 53°59' W 131°02'918.7
2018-Jun-23 09:30N 54°08' W 131°03'918.0
2018-Jun-23 09:00N 54°17' W 130°60'5 9.5
2018-Jun-23 08:30N 54°22' W 131°00'1017.8
2018-Jun-23 07:58N 54°29' W 131°11'1118.0
2018-Jun-23 07:22N 54°40' W 131°15'2115.3
2018-Jun-23 06:00N 55°00' W 131°06'1615.8 170 / 181021.610.8 13.010.717.0
2018-Jun-23 05:00N 55°12' W 131°24'138 6.6 120 / 141021.210.8 13.010.517.0
2018-Jun-22 08:00N 56°42' W 134°30'1817.8 170 / 211018.710.8 12.0 9.612.0
2018-Jun-22 07:00N 56°54' W 134°06'84 1.7 260 / 141018.010.8 11.0 9.312.0
2018-Jun-20 05:16N 58°09' W 135°15'4 9.4
2018-Jun-20 04:52N 58°11' W 135°22'513.4
2018-Jun-20 04:29N 58°13' W 135°30'713.4
2018-Jun-20 03:57N 58°17' W 135°42'613.3
2018-Jun-20 03:30N 58°19' W 135°52'612.5
2018-Jun-20 03:00N 58°24' W 135°59'510.8
2018-Jun-20 02:30N 58°29' W 136°03'713.2
2018-Jun-20 02:00N 58°36' W 136°03'510.6
2018-Jun-20 01:30N 58°41' W 136°06'714.4
2018-Jun-20 01:00N 58°45' W 136°17'5 0.8
2018-Jun-19 18:09N 58°49' W 136°25'314.7
2018-Jun-19 17:57N 58°47' W 136°21'714.4
2018-Jun-19 17:28N 58°42' W 136°11'511.6
2018-Jun-19 17:00N 58°39' W 136°03'4 8.9
2018-Jun-19 16:30N 58°34' W 136°03'612.3
2018-Jun-19 16:00N 58°28' W 136°02'510.6
2018-Jun-19 15:30N 58°23' W 135°58'612.7
2018-Jun-19 15:00N 58°19' W 136°08'11411.4
2018-Jun-19 05:00N 58°42' W 139°42'1212.5 180 / 201019.5 0.1 10.1 9.816.6
2018-Jun-19 04:00N 58°42' W 140°06'2512.5 160 / 201020.0 1.1 10.2 9.916.6
2018-Jun-19 02:00N 58°42' W 140°54'12914.3 160 / 181020.3 2.2 10.4 9.912.0
2018-Jun-18 17:00N 59°00' W 145°00'12912.9 140 / 351013.3 2.2 10.6 9.812.0
2018-Jun-18 07:00N 59°42' W 149°00'1110.9 070 / 401011.7 2.2 9.8 8.912.0
2018-Jun-18 06:00N 59°48' W 149°18'18 1.1 070 / 461010.7 2.2 11.4 8.610.0
2018-Jun-17 14:00N 60°06' W 149°24'80 8.9 190 / 151014.9 2.2 10.0 7.610.0
2018-Jun-17 05:00N 59°18' W 147°18'28512.9 150 / 141014.0 5.4 10.0 9.110.0
2018-Jun-16 07:00N 58°24' W 138°18'3416.9 170 / 191025.5 5.4 10.3 7.211.0
2018-Jun-16 05:00N 58°12' W 137°18'3211.8 220 / 131026.310.8 10.2 7.110.0
2018-Jun-16 02:17N 58°18' W 136°18'516.8
2018-Jun-16 02:00N 58°19' W 136°09'715.0
2018-Jun-16 01:30N 58°25' W 135°60'612.9
2018-Jun-16 01:00N 58°31' W 136°04'714.2
2018-Jun-16 00:30N 58°38' W 136°03'611.0
2018-Jun-16 00:00N 58°42' W 136°09'612.8
2018-Jun-15 23:30N 58°46' W 136°19'712.8
2018-Jun-15 22:59N 58°49' W 136°30'1 0.1
2018-Jun-15 16:40N 58°49' W 136°28'311.6
2018-Jun-15 16:26N 58°48' W 136°23'614.8
2018-Jun-15 16:00N 58°44' W 136°14'714.5
2018-Jun-15 15:30N 58°39' W 136°04'611.8
2018-Jun-15 15:00N 58°33' W 136°03'510.5
2018-Jun-15 14:30N 58°28' W 136°02'5 9.7
2018-Jun-15 14:00N 58°24' W 135°57'510.7
2018-Jun-15 13:30N 58°19' W 135°52'713.2
2018-Jun-15 13:00N 58°17' W 135°40'713.7
2018-Jun-15 12:29N 58°14' W 135°28'  
Track history (hours):
 
Tides and Currents Weather Stations Pressure Air Temp Water Temp Dewpoint Dewpoint Depression Visibility Wind Speed Wind Dir Waves Ship Positions

Westerdam

Operator: Holland America Line

Last reported at 2018-Jun-24 20:00 UTC. Time now 2018-Jun-24 20:17 UTC.
Position N 49°17' W 123°07'.

Type: Passenger vessel. MMSI: 244128000.

Date/timePositionNaut miles runAvg speedWind from/ knotsBaromVisibWave heightAir tempDewpointWater temp
2018-Jun-24 20:00N 49°17' W 123°07'0 0.0
2018-Jun-24 19:28N 49°17' W 123°07'0 0.0
2018-Jun-24 18:55N 49°17' W 123°07'0 0.0
2018-Jun-24 18:31N 49°17' W 123°07'0 0.0
2018-Jun-24 18:01N 49°17' W 123°07'0 0.0
2018-Jun-24 17:31N 49°17' W 123°07'0 0.0
2018-Jun-24 17:00N 49°17' W 123°07'0 0.0
2018-Jun-24 16:27N 49°17' W 123°07'0 0.0
2018-Jun-24 16:01N 49°17' W 123°07'0 0.0
2018-Jun-24 15:30N 49°17' W 123°07'0 0.0
2018-Jun-24 14:57N 49°17' W 123°07'0 0.0
2018-Jun-24 14:28N 49°17' W 123°07'0 0.0
2018-Jun-24 14:00N 49°17' W 123°07'0 0.4
2018-Jun-24 13:30N 49°17' W 123°07'3 6.3
2018-Jun-24 12:59N 49°19' W 123°11'5 9.7
2018-Jun-24 12:30N 49°18' W 123°18'610.2
2018-Jun-24 11:57N 49°18' W 123°27'711.4
2018-Jun-24 11:22N 49°19' W 123°37'711.9
2018-Jun-24 10:49N 49°20' W 123°47'412.8
2018-Jun-24 10:29N 49°22' W 123°53'712.4
2018-Jun-24 09:56N 49°23' W 124°03'512.3
2018-Jun-24 09:30N 49°24' W 124°11'612.1
2018-Jun-24 09:00N 49°25' W 124°20'611.6
2018-Jun-24 08:30N 49°28' W 124°28'612.3
2018-Jun-24 08:00N 49°33' W 124°35'612.5
2018-Jun-24 07:30N 49°37' W 124°41'714.1
2018-Jun-24 07:00N 49°42' W 124°49'714.7
2018-Jun-24 06:30N 49°48' W 124°56'714.0
2018-Jun-24 06:00N 49°53' W 125°04'714.1
2018-Jun-24 05:30N 49°58' W 125°11'713.8
2018-Jun-24 04:59N 50°05' W 125°16'611.9
2018-Jun-24 04:31N 50°09' W 125°21'612.8
2018-Jun-24 04:00N 50°16' W 125°24'4223.3
2018-Jun-24 04:00N 50°12' W 125°24'1515.0 150 / 171018.410.8 19.2 9.115.0
2018-Jun-24 02:59N 50°22' W 125°41'2117.3
2018-Jun-24 01:47N 50°29' W 126°12'818.7
2018-Jun-24 01:22N 50°30' W 126°24'1018.2
2018-Jun-24 00:47N 50°32' W 126°40'716.6
2018-Jun-24 00:23N 50°37' W 126°46'2 4.6
2018-Jun-24 00:00N 50°36' W 126°48'8250.3 260 / 191021.710.8 13.611.112.0
2018-Jun-23 23:57N 50°42' W 126°57'919.2
2018-Jun-23 23:30N 50°46' W 127°10'919.0
2018-Jun-23 23:00N 50°49' W 127°24'918.7
2018-Jun-23 22:30N 50°53' W 127°37'918.8
2018-Jun-23 22:00N 50°59' W 127°49'918.8
2018-Jun-23 21:30N 51°03' W 128°02'918.4
2018-Jun-23 21:00N 51°07' W 128°15'918.8
2018-Jun-23 20:30N 51°11' W 128°29'1019.2
2018-Jun-23 20:00N 51°15' W 128°43'1019.4
2018-Jun-23 19:29N 51°19' W 128°58'919.3
2018-Jun-23 19:00N 51°23' W 129°11'1319.8
2018-Jun-23 18:22N 51°29' W 129°29'11919.1
2018-Jun-23 12:08N 53°19' W 130°42'319.8
2018-Jun-23 12:00N 53°22' W 130°44'1119.5
2018-Jun-23 11:27N 53°32' W 130°49'819.2
2018-Jun-23 11:00N 53°40' W 130°53'1019.7
2018-Jun-23 10:30N 53°50' W 130°58'1019.6
2018-Jun-23 10:00N 53°59' W 131°02'918.7
2018-Jun-23 09:30N 54°08' W 131°03'918.0
2018-Jun-23 09:00N 54°17' W 130°60'5 9.5
2018-Jun-23 08:30N 54°22' W 131°00'1017.8
2018-Jun-23 07:58N 54°29' W 131°11'1118.0
2018-Jun-23 07:22N 54°40' W 131°15'2115.3
2018-Jun-23 06:00N 55°00' W 131°06'1615.8 170 / 181021.610.8 13.010.717.0
2018-Jun-23 05:00N 55°12' W 131°24'138 6.6 120 / 141021.210.8 13.010.517.0
2018-Jun-22 08:00N 56°42' W 134°30'1817.8 170 / 211018.710.8 12.0 9.612.0
2018-Jun-22 07:00N 56°54' W 134°06'84 1.7 260 / 141018.010.8 11.0 9.312.0
2018-Jun-20 05:16N 58°09' W 135°15'4 9.4
2018-Jun-20 04:52N 58°11' W 135°22'513.4
2018-Jun-20 04:29N 58°13' W 135°30'713.4
2018-Jun-20 03:57N 58°17' W 135°42'613.3
2018-Jun-20 03:30N 58°19' W 135°52'612.5
2018-Jun-20 03:00N 58°24' W 135°59'510.8
2018-Jun-20 02:30N 58°29' W 136°03'713.2
2018-Jun-20 02:00N 58°36' W 136°03'510.6
2018-Jun-20 01:30N 58°41' W 136°06'714.4
2018-Jun-20 01:00N 58°45' W 136°17'5 0.8
2018-Jun-19 18:09N 58°49' W 136°25'314.7
2018-Jun-19 17:57N 58°47' W 136°21'714.4
2018-Jun-19 17:28N 58°42' W 136°11'511.6
2018-Jun-19 17:00N 58°39' W 136°03'4 8.9
2018-Jun-19 16:30N 58°34' W 136°03'612.3
2018-Jun-19 16:00N 58°28' W 136°02'510.6
2018-Jun-19 15:30N 58°23' W 135°58'612.7
2018-Jun-19 15:00N 58°19' W 136°08'11411.4
2018-Jun-19 05:00N 58°42' W 139°42'1212.5 180 / 201019.5 0.1 10.1 9.816.6
2018-Jun-19 04:00N 58°42' W 140°06'2512.5 160 / 201020.0 1.1 10.2 9.916.6
2018-Jun-19 02:00N 58°42' W 140°54'12914.3 160 / 181020.3 2.2 10.4 9.912.0
2018-Jun-18 17:00N 59°00' W 145°00'12912.9 140 / 351013.3 2.2 10.6 9.812.0
2018-Jun-18 07:00N 59°42' W 149°00'1110.9 070 / 401011.7 2.2 9.8 8.912.0
2018-Jun-18 06:00N 59°48' W 149°18'18 1.1 070 / 461010.7 2.2 11.4 8.610.0
2018-Jun-17 14:00N 60°06' W 149°24'80 8.9 190 / 151014.9 2.2 10.0 7.610.0
2018-Jun-17 05:00N 59°18' W 147°18'28512.9 150 / 141014.0 5.4 10.0 9.110.0
2018-Jun-16 07:00N 58°24' W 138°18'3416.9 170 / 191025.5 5.4 10.3 7.211.0
2018-Jun-16 05:00N 58°12' W 137°18'3211.8 220 / 131026.310.8 10.2 7.110.0
2018-Jun-16 02:17N 58°18' W 136°18'516.8
2018-Jun-16 02:00N 58°19' W 136°09'715.0
2018-Jun-16 01:30N 58°25' W 135°60'612.9
2018-Jun-16 01:00N 58°31' W 136°04'714.2
2018-Jun-16 00:30N 58°38' W 136°03'611.0
2018-Jun-16 00:00N 58°42' W 136°09'612.8
2018-Jun-15 23:30N 58°46' W 136°19'712.8
2018-Jun-15 22:59N 58°49' W 136°30'1 0.1
2018-Jun-15 16:40N 58°49' W 136°28'311.6
2018-Jun-15 16:26N 58°48' W 136°23'614.8
2018-Jun-15 16:00N 58°44' W 136°14'714.5
2018-Jun-15 15:30N 58°39' W 136°04'611.8
2018-Jun-15 15:00N 58°33' W 136°03'510.5
2018-Jun-15 14:30N 58°28' W 136°02'5 9.7
2018-Jun-15 14:00N 58°24' W 135°57'510.7
2018-Jun-15 13:30N 58°19' W 135°52'713.2
2018-Jun-15 13:00N 58°17' W 135°40'713.7
2018-Jun-15 12:29N 58°14' W 135°28'  

Dump ship's entire track history